Terminal Aerodrome Forecast
Issued by NWS Wichita, KS

Home | Current Version | Previous Version | Graphics & Text | Print | Product List | Glossary On
Versions: 1 2 3 4 5 6 7 8 9 10 11 12 13 14 15 16 17 18 19 20 21 22 23 24 25
000
FTUS43 KICT 302329
TAFICT
TAF
KICT 302329Z 3100/3124 17010KT P6SM BKN150
     FM310100 17007KT P6SM OVC080
     FM310800 14005KT P6SM -RA SCT015 OVC030
     FM311200 16008KT P6SM -RA OVC015=

USA.gov is the U.S. government's official web portal to all federal, state and local government web resources and services.